Pagrindinis puslapis
METAR-TAF:

METAR-TAF

Oro uostai :

Taba, Egiptas

platuma: 29-35-57N, ilguma: 034-46-36E, Aukštis: 749 m

METAR: trūkstamas

Laikas: 09:19 (07:19 UTC)

Prognozė

Ataskaita buvo paskelbta 2 valandos ir 19 minutes, ne 05:00 UTC
Prognozė galioja nuo 26 metu 06 UTC su 27 metu 12 UTC
Vėjas 12 kt iš Šiaurės
Matomumas 10 km arba daugiau
nėra debesų žemiau 1500 m ir nėra kamuolinių lietaus debesų

TAF: HETB 260500Z 2606/2712 01012KT CAVOK

Orai ataskaitas ir orų prognozės (METAR, TAF).

turimą stotys yra geltonos ir raudonos taškus žemėlapyje.

Perkelti pele per norėdami pamatyti stoties vardą.

Tada spustelėkite, norėdami matyti oro stebėjimo ir prognozės.

Norėdami pakeisti žemėlapį: spustelėkite ant žalios mygtukų su juodo kryžiaus žemyn,; žalią mygtuką su brūkšneliu, jei norite nutolinti; arba žalių rodyklių gretimoms žemėlapius.


METAR-TAF: